Time;durP1;ratioP1;P1;durP2;ratioP2;P2;SDS_P1;SDS_P2;PMS_P1;PMS_P2;Temp;Humidity;BMP_temperature;BMP_pressure;BME280_temperature;BME280_humidity;BME280_pressure;Samples;Min_cycle;Max_cycle;Signal;HPM_P1;HPM_P2
2021/12/08 00:00:37;;;;;;;7.88;4.60;;;;;;;;;;5011269;28;43247;-87
2021/12/08 00:03:05;;;;;;;11.63;4.90;;;;;;;;;;5011221;28;43733;-87
2021/12/08 00:05:32;;;;;;;12.23;5.18;;;;;;;;;;5012131;28;42699;-87
2021/12/08 00:07:59;;;;;;;8.70;5.10;;;;;;;;;;5011182;28;44642;-87
2021/12/08 00:11:02;;;;;;;11.10;4.90;;;;;;;;;;5011076;28;44716;-87
2021/12/08 00:13:17;;;;;;;16.60;5.50;;;;;;;;;;5011350;28;43919;-86
2021/12/08 00:15:45;;;;;;;14.73;5.13;;;;;;;;;;5011746;28;43357;-86
2021/12/08 00:18:13;;;;;;;13.50;4.85;;;;;;;;;;5011632;28;44940;-86
2021/12/08 00:20:41;;;;;;;12.20;5.07;;;;;;;;;;5010747;28;44711;-86
2021/12/08 00:23:08;;;;;;;11.20;4.50;;;;;;;;;;5011421;28;44012;-87
2021/12/08 00:25:35;;;;;;;10.60;3.75;;;;;;;;;;5010698;28;44208;-86
2021/12/08 00:28:02;;;;;;;5.82;4.25;;;;;;;;;;5010753;28;43705;-87
2021/12/08 00:30:29;;;;;;;13.98;5.05;;;;;;;;;;5010873;28;45021;-86
2021/12/08 00:32:58;;;;;;;11.68;4.95;;;;;;;;;;5010940;28;43896;-87
2021/12/08 00:35:26;;;;;;;9.60;4.20;;;;;;;;;;5010656;28;43938;-87
2021/12/08 00:37:54;;;;;;;14.07;5.50;;;;;;;;;;5010720;28;43814;-86
2021/12/08 00:40:21;;;;;;;12.10;4.90;;;;;;;;;;5010892;28;45737;-86
2021/12/08 00:42:48;;;;;;;13.43;3.78;;;;;;;;;;5010076;28;44933;-87
2021/12/08 00:45:15;;;;;;;9.93;4.28;;;;;;;;;;5010350;28;44850;-86
2021/12/08 00:47:42;;;;;;;13.63;5.07;;;;;;;;;;5010881;28;43437;-87
2021/12/08 00:50:09;;;;;;;11.10;5.00;;;;;;;;;;5009896;28;44411;-87
2021/12/08 00:52:37;;;;;;;9.10;4.65;;;;;;;;;;5010974;28;43878;-87
2021/12/08 00:55:05;;;;;;;14.20;5.40;;;;;;;;;;5010730;28;43625;-86
2021/12/08 00:57:32;;;;;;;12.57;4.30;;;;;;;;;;5010769;28;43957;-87
2021/12/08 01:00:02;;;;;;;15.63;5.13;;;;;;;;;;5009823;28;43606;-86
2021/12/08 01:02:29;;;;;;;8.18;4.75;;;;;;;;;;4992883;28;44782;-86
2021/12/08 01:04:57;;;;;;;12.93;4.63;;;;;;;;;;5009687;28;45047;-87
2021/12/08 01:07:23;;;;;;;10.43;4.75;;;;;;;;;;5010317;28;44770;-87
2021/12/08 01:09:50;;;;;;;10.60;4.25;;;;;;;;;;5009537;28;44649;-86
2021/12/08 01:12:16;;;;;;;7.53;4.63;;;;;;;;;;5010506;28;44878;-86
2021/12/08 01:14:43;;;;;;;6.20;4.10;;;;;;;;;;5010162;28;43924;-86
2021/12/08 01:17:10;;;;;;;12.35;5.50;;;;;;;;;;5009635;28;43846;-86
2021/12/08 01:19:37;;;;;;;6.88;5.65;;;;;;;;;;5010097;28;43950;-86
2021/12/08 01:22:03;;;;;;;8.43;5.10;;;;;;;;;;5009881;28;44870;-86
2021/12/08 01:24:31;;;;;;;12.93;5.22;;;;;;;;;;5009411;28;44990;-86
2021/12/08 01:26:58;;;;;;;11.48;5.32;;;;;;;;;;5010132;28;44617;-86
2021/12/08 01:29:25;;;;;;;13.85;6.18;;;;;;;;;;5010118;28;45995;-86
2021/12/08 01:31:52;;;;;;;13.98;6.05;;;;;;;;;;5007925;28;42903;-86
2021/12/08 01:34:18;;;;;;;11.50;6.03;;;;;;;;;;5008558;28;45896;-87
2021/12/08 01:36:45;;;;;;;7.95;4.90;;;;;;;;;;5008182;28;44935;-86
2021/12/08 01:39:12;;;;;;;9.82;6.00;;;;;;;;;;5008199;28;44006;-86
2021/12/08 01:41:39;;;;;;;13.50;5.80;;;;;;;;;;5008471;28;44958;-86
2021/12/08 01:46:53;;;;;;;13.05;5.78;;;;;;;;;;5007645;28;44544;-87
2021/12/08 01:49:20;;;;;;;11.43;6.10;;;;;;;;;;5008410;28;44147;-86
2021/12/08 01:51:46;;;;;;;11.55;6.13;;;;;;;;;;5008351;28;44882;-86
2021/12/08 01:54:13;;;;;;;7.40;5.65;;;;;;;;;;5007867;28;44625;-86
2021/12/08 01:56:40;;;;;;;10.38;5.95;;;;;;;;;;5007930;28;45325;-87
2021/12/08 01:59:07;;;;;;;8.82;6.35;;;;;;;;;;5007712;28;44914;-86
2021/12/08 02:01:36;;;;;;;14.47;6.37;;;;;;;;;;5008658;28;43420;-87
2021/12/08 02:04:04;;;;;;;9.65;5.55;;;;;;;;;;5008205;28;43817;-86
2021/12/08 02:06:32;;;;;;;15.02;6.85;;;;;;;;;;5007536;28;45715;-88
2021/12/08 02:08:59;;;;;;;11.05;6.93;;;;;;;;;;5007687;28;46439;-87
2021/12/08 02:11:26;;;;;;;13.27;7.47;;;;;;;;;;5007664;28;44790;-86
2021/12/08 02:13:59;;;;;;;18.98;8.02;;;;;;;;;;5007478;28;43498;-86
2021/12/08 02:16:27;;;;;;;10.25;6.78;;;;;;;;;;5007464;28;43775;-86
2021/12/08 02:18:54;;;;;;;10.57;6.60;;;;;;;;;;5007736;28;43535;-86
2021/12/08 02:21:20;;;;;;;14.75;6.93;;;;;;;;;;5007193;28;45649;-86
2021/12/08 02:23:47;;;;;;;11.07;7.13;;;;;;;;;;5007876;28;43701;-86
2021/12/08 02:26:14;;;;;;;9.95;6.53;;;;;;;;;;5007574;28;44697;-86
2021/12/08 02:28:40;;;;;;;18.02;6.97;;;;;;;;;;5007229;28;44937;-87
2021/12/08 02:31:11;;;;;;;10.48;6.43;;;;;;;;;;4971637;28;1030729;-87
2021/12/08 02:47:44;;;;;;;15.05;7.80;;;;;;;;;;5012859;28;42873;-87
2021/12/08 02:50:11;;;;;;;9.35;5.47;;;;;;;;;;5011789;28;44824;-86
2021/12/08 02:52:38;;;;;;;10.77;5.70;;;;;;;;;;5012148;28;44081;-87
2021/12/08 02:55:06;;;;;;;11.70;5.57;;;;;;;;;;5012428;28;43594;-86
2021/12/08 02:57:33;;;;;;;10.82;5.03;;;;;;;;;;5012040;28;43917;-86
2021/12/08 02:59:59;;;;;;;11.35;4.82;;;;;;;;;;5012480;28;43919;-87
2021/12/08 03:02:26;;;;;;;16.65;5.38;;;;;;;;;;5011624;28;43723;-87
2021/12/08 03:04:53;;;;;;;15.13;5.38;;;;;;;;;;5011746;28;44009;-87
2021/12/08 03:07:19;;;;;;;12.73;4.68;;;;;;;;;;5012121;28;44857;-86
2021/12/08 03:09:46;;;;;;;10.88;4.82;;;;;;;;;;5011998;28;43603;-87
2021/12/08 03:12:13;;;;;;;12.55;5.63;;;;;;;;;;5011723;28;43948;-86
2021/12/08 03:14:40;;;;;;;13.88;4.70;;;;;;;;;;5012263;28;44274;-86
2021/12/08 03:17:09;;;;;;;13.17;5.50;;;;;;;;;;5011605;28;43959;-86
2021/12/08 03:19:36;;;;;;;10.20;4.80;;;;;;;;;;5011929;28;44883;-86
2021/12/08 03:22:09;;;;;;;11.80;5.20;;;;;;;;;;5012032;28;44625;-86
2021/12/08 03:24:38;;;;;;;8.82;4.15;;;;;;;;;;5011287;28;46085;-86
2021/12/08 03:27:10;;;;;;;13.18;4.10;;;;;;;;;;5011440;28;43914;-87
2021/12/08 03:29:45;;;;;;;10.32;4.10;;;;;;;;;;5012014;28;45674;-87
2021/12/08 03:32:17;;;;;;;14.18;4.18;;;;;;;;;;5010986;28;46073;-87
2021/12/08 03:34:51;;;;;;;14.50;4.22;;;;;;;;;;5011555;28;44629;-87
2021/12/08 03:37:38;;;;;;;12.15;4.13;;;;;;;;;;5011400;28;45111;-86
2021/12/08 03:40:07;;;;;;;13.38;4.28;;;;;;;;;;5011789;28;43603;-86
2021/12/08 03:42:36;;;;;;;15.13;4.10;;;;;;;;;;5011529;28;45715;-86
2021/12/08 03:45:07;;;;;;;8.32;3.90;;;;;;;;;;5010884;28;43929;-87
2021/12/08 03:47:37;;;;;;;12.45;4.65;;;;;;;;;;5011505;28;43143;-87
2021/12/08 03:50:06;;;;;;;11.40;3.95;;;;;;;;;;5011380;28;43703;-87
2021/12/08 03:52:33;;;;;;;11.90;4.10;;;;;;;;;;5011034;28;44997;-87
2021/12/08 03:54:59;;;;;;;12.38;3.72;;;;;;;;;;5011143;28;44903;-86
2021/12/08 03:57:26;;;;;;;11.20;3.92;;;;;;;;;;5011278;28;46068;-86
2021/12/08 03:59:53;;;;;;;13.57;4.15;;;;;;;;;;5010437;28;44877;-86
2021/12/08 04:02:20;;;;;;;11.82;3.97;;;;;;;;;;5011077;28;44752;-85
2021/12/08 04:04:50;;;;;;;17.83;4.15;;;;;;;;;;5011351;28;43862;-86
2021/12/08 04:07:18;;;;;;;8.57;3.58;;;;;;;;;;5010624;28;43963;-86
2021/12/08 04:09:48;;;;;;;9.73;3.42;;;;;;;;;;5010943;28;44673;-86
2021/12/08 04:12:16;;;;;;;12.55;4.32;;;;;;;;;;5010819;28;46120;-86
2021/12/08 04:14:46;;;;;;;10.63;3.35;;;;;;;;;;5011275;28;43900;-86
2021/12/08 04:17:30;;;;;;;12.45;3.60;;;;;;;;;;5010639;28;46122;-87
2021/12/08 04:19:58;;;;;;;13.90;3.05;;;;;;;;;;5010629;28;43929;-86
2021/12/08 04:22:36;;;;;;;11.23;3.60;;;;;;;;;;5010460;28;44189;-86
2021/12/08 04:25:08;;;;;;;10.95;3.45;;;;;;;;;;5011160;28;44953;-86
2021/12/08 04:27:36;;;;;;;11.82;3.38;;;;;;;;;;5010325;28;42972;-86
2021/12/08 04:30:10;;;;;;;8.75;2.80;;;;;;;;;;5010879;28;45643;-86
2021/12/08 04:32:37;;;;;;;10.70;3.50;;;;;;;;;;5010761;28;44898;-86
2021/12/08 04:35:07;;;;;;;9.25;2.97;;;;;;;;;;5010294;28;44017;-86
2021/12/08 04:37:35;;;;;;;8.48;2.45;;;;;;;;;;5011226;28;44883;-85
2021/12/08 04:40:19;;;;;;;14.60;3.23;;;;;;;;;;5010993;28;42684;-86
2021/12/08 04:45:35;;;;;;;8.45;2.38;;;;;;;;;;5010791;28;46056;-85
2021/12/08 04:48:15;;;;;;;11.93;2.85;;;;;;;;;;5010407;28;44814;-86
2021/12/08 04:51:11;;;;;;;9.30;2.28;;;;;;;;;;5010681;28;43412;-86
2021/12/08 05:04:34;;;;;;;8.52;2.40;;;;;;;;;;5008002;28;45727;-85
2021/12/08 05:09:49;;;;;;;7.63;2.63;;;;;;;;;;5007769;28;44880;-85
2021/12/08 05:12:18;;;;;;;12.00;2.25;;;;;;;;;;5009657;28;44761;-85
2021/12/08 05:14:47;;;;;;;8.20;2.17;;;;;;;;;;5010484;28;46290;-85
2021/12/08 05:17:15;;;;;;;7.15;2.22;;;;;;;;;;5009257;28;44887;-85
2021/12/08 05:19:43;;;;;;;6.53;1.98;;;;;;;;;;5010087;28;45760;-85
2021/12/08 05:22:13;;;;;;;16.83;2.30;;;;;;;;;;5010154;28;46131;-85
2021/12/08 05:24:42;;;;;;;7.45;1.67;;;;;;;;;;5010266;28;44037;-85
2021/12/08 05:27:09;;;;;;;9.27;1.92;;;;;;;;;;5010707;28;20056;-85
2021/12/08 05:29:44;;;;;;;7.22;1.75;;;;;;;;;;5009764;28;42871;-85
2021/12/08 05:32:11;;;;;;;8.90;2.25;;;;;;;;;;5008907;28;43178;-85
2021/12/08 05:34:39;;;;;;;9.32;2.10;;;;;;;;;;5009801;28;45971;-85
2021/12/08 05:37:06;;;;;;;10.30;1.65;;;;;;;;;;5009405;28;42916;-84
2021/12/08 05:39:34;;;;;;;10.85;1.67;;;;;;;;;;5010039;28;44797;-85
2021/12/08 05:42:06;;;;;;;11.50;2.30;;;;;;;;;;5009229;28;43963;-85
2021/12/08 05:44:33;;;;;;;8.73;1.55;;;;;;;;;;5009506;28;44858;-85
2021/12/08 05:47:01;;;;;;;5.82;1.70;;;;;;;;;;5009677;28;44976;-85
2021/12/08 05:49:27;;;;;;;7.28;2.20;;;;;;;;;;5009846;28;43922;-85
2021/12/08 05:51:55;;;;;;;11.45;2.38;;;;;;;;;;5008838;28;45766;-85
2021/12/08 05:54:30;;;;;;;4.38;1.60;;;;;;;;;;5009227;28;45004;-85
2021/12/08 05:56:58;;;;;;;7.10;1.80;;;;;;;;;;5009679;28;42911;-84
2021/12/08 05:59:25;;;;;;;6.57;1.92;;;;;;;;;;5009208;28;44373;-84
2021/12/08 06:01:54;;;;;;;9.35;2.00;;;;;;;;;;5008865;28;43968;-85
2021/12/08 06:04:22;;;;;;;7.55;2.22;;;;;;;;;;5009594;28;44891;-84
2021/12/08 06:06:49;;;;;;;7.28;1.80;;;;;;;;;;5008694;28;44610;-85
2021/12/08 06:09:18;;;;;;;11.30;2.35;;;;;;;;;;5009448;28;46312;-84
2021/12/08 06:11:46;;;;;;;11.73;2.10;;;;;;;;;;5009183;28;44954;-84
2021/12/08 06:14:13;;;;;;;;;;;;;;;;;;5010260;28;46102;-84
2021/12/08 06:16:40;;;;;;;8.27;1.98;;;;;;;;;;5009090;28;44035;-84
2021/12/08 06:19:08;;;;;;;4.47;1.50;;;;;;;;;;5009725;28;45687;-84
2021/12/08 06:21:35;;;;;;;8.98;1.60;;;;;;;;;;5008299;28;44951;-84
2021/12/08 06:24:03;;;;;;;9.50;1.98;;;;;;;;;;5009423;28;44853;-84
2021/12/08 06:26:30;;;;;;;7.88;1.63;;;;;;;;;;5008645;28;45697;-84
2021/12/08 06:28:57;;;;;;;7.10;1.25;;;;;;;;;;5009351;28;45775;-85
2021/12/08 06:31:25;;;;;;;8.95;1.67;;;;;;;;;;5008512;28;44609;-84
2021/12/08 06:33:52;;;;;;;;;;;;;;;;;;5009732;28;45307;-84
2021/12/08 06:36:24;;;;;;;6.07;1.33;;;;;;;;;;5009100;28;43029;-84
2021/12/08 06:38:52;;;;;;;10.25;1.65;;;;;;;;;;5009016;28;44674;-85
2021/12/08 06:41:22;;;;;;;5.20;1.20;;;;;;;;;;5008333;28;45989;-84
2021/12/08 06:43:51;;;;;;;13.32;1.88;;;;;;;;;;5008551;28;44913;-84
2021/12/08 06:46:18;;;;;;;8.60;1.90;;;;;;;;;;5010215;28;20054;-85
2021/12/08 06:48:47;;;;;;;9.60;1.83;;;;;;;;;;5008513;28;43935;-84
2021/12/08 06:51:22;;;;;;;10.13;1.90;;;;;;;;;;5008928;28;43090;-85
2021/12/08 06:53:52;;;;;;;12.68;1.52;;;;;;;;;;5009095;28;44894;-84
2021/12/08 06:56:28;;;;;;;6.28;1.30;;;;;;;;;;5008343;28;45361;-84
2021/12/08 06:58:57;;;;;;;14.20;1.92;;;;;;;;;;5008783;28;45729;-85
2021/12/08 07:07:00;;;;;;;12.50;1.90;;;;;;;;;;5008970;28;43616;-85
2021/12/08 07:09:27;;;;;;;8.38;1.75;;;;;;;;;;5008464;28;46117;-84
2021/12/08 07:11:54;;;;;;;14.32;1.90;;;;;;;;;;5007927;28;43989;-84
2021/12/08 07:14:23;;;;;;;4.23;1.30;;;;;;;;;;5009254;28;43627;-84
2021/12/08 07:16:51;;;;;;;7.53;1.83;;;;;;;;;;5008067;28;43867;-84
2021/12/08 07:19:28;;;;;;;10.93;1.90;;;;;;;;;;5008394;28;45091;-84
2021/12/08 07:21:56;;;;;;;8.95;1.60;;;;;;;;;;5008350;28;46113;-84
2021/12/08 07:24:29;;;;;;;8.90;1.83;;;;;;;;;;5008741;28;44865;-84
2021/12/08 07:26:58;;;;;;;11.38;1.75;;;;;;;;;;5008489;28;44603;-84
2021/12/08 07:29:27;;;;;;;13.55;1.80;;;;;;;;;;5010361;28;45871;-84
2021/12/08 07:31:57;;;;;;;14.30;1.85;;;;;;;;;;5010899;28;45322;-84
2021/12/08 07:34:25;;;;;;;8.90;1.83;;;;;;;;;;5011705;28;45778;-84
2021/12/08 07:36:59;;;;;;;9.35;1.58;;;;;;;;;;5011641;28;44957;-84
2021/12/08 07:39:42;;;;;;;11.68;2.33;;;;;;;;;;5011704;28;45938;-84
2021/12/08 07:42:17;;;;;;;11.65;2.22;;;;;;;;;;5011780;28;43964;-84
2021/12/08 07:44:46;;;;;;;11.55;1.83;;;;;;;;;;5011098;28;44973;-84
2021/12/08 07:47:14;;;;;;;7.13;1.83;;;;;;;;;;5011241;28;45648;-84
2021/12/08 07:49:47;;;;;;;18.30;2.40;;;;;;;;;;5011795;28;43699;-84
2021/12/08 07:52:23;;;;;;;8.90;1.92;;;;;;;;;;5010858;28;44949;-84
2021/12/08 07:54:50;;;;;;;11.75;1.92;;;;;;;;;;5011435;28;45592;-85
2021/12/08 07:57:20;;;;;;;11.05;1.92;;;;;;;;;;5011893;28;46079;-85
2021/12/08 07:59:48;;;;;;;10.32;1.85;;;;;;;;;;5010853;28;42824;-84
2021/12/08 08:02:15;;;;;;;8.32;2.00;;;;;;;;;;5011122;28;43956;-84
2021/12/08 08:04:45;;;;;;;7.38;1.90;;;;;;;;;;5011219;28;42876;-84
2021/12/08 08:07:12;;;;;;;6.97;1.95;;;;;;;;;;5012290;28;20542;-85
2021/12/08 08:09:42;;;;;;;10.65;2.00;;;;;;;;;;5011330;28;43931;-84
2021/12/08 08:12:11;;;;;;;6.35;1.63;;;;;;;;;;5010593;28;44892;-84
2021/12/08 08:14:40;;;;;;;14.35;2.63;;;;;;;;;;5011296;28;44669;-84
2021/12/08 08:17:09;;;;;;;9.63;1.92;;;;;;;;;;5011025;28;44970;-84
2021/12/08 08:19:42;;;;;;;6.25;1.98;;;;;;;;;;5010764;28;43850;-86
2021/12/08 08:22:10;;;;;;;9.32;2.25;;;;;;;;;;5010936;28;44264;-85
2021/12/08 08:24:37;;;;;;;10.75;2.03;;;;;;;;;;5011396;28;44135;-84
2021/12/08 08:27:06;;;;;;;7.22;2.28;;;;;;;;;;5010660;28;45703;-85
2021/12/08 08:29:33;;;;;;;11.93;1.95;;;;;;;;;;5011290;28;44960;-87
2021/12/08 08:32:08;;;;;;;9.57;2.20;;;;;;;;;;5008902;28;43948;-86
2021/12/08 08:34:38;;;;;;;11.52;2.28;;;;;;;;;;5011484;28;45722;-84
2021/12/08 08:37:06;;;;;;;12.38;1.90;;;;;;;;;;5010635;28;44879;-85
2021/12/08 08:39:35;;;;;;;8.77;2.25;;;;;;;;;;5028103;28;44881;-85
2021/12/08 08:42:05;;;;;;;11.07;2.30;;;;;;;;;;5024526;28;44678;-85
2021/12/08 08:44:32;;;;;;;10.98;2.45;;;;;;;;;;5009594;28;44968;-85
2021/12/08 08:47:01;;;;;;;15.65;2.50;;;;;;;;;;5007223;28;45617;-85
2021/12/08 08:49:29;;;;;;;11.20;2.00;;;;;;;;;;5007627;28;44539;-84
2021/12/08 08:52:00;;;;;;;9.18;1.65;;;;;;;;;;5008045;28;45030;-85
2021/12/08 08:54:29;;;;;;;11.68;2.05;;;;;;;;;;5008695;28;43602;-80
2021/12/08 08:56:58;;;;;;;9.43;1.58;;;;;;;;;;5010320;28;44004;-86
2021/12/08 08:59:27;;;;;;;8.95;2.30;;;;;;;;;;5010651;28;44042;-86
2021/12/08 09:01:55;;;;;;;7.45;1.80;;;;;;;;;;5009434;28;45317;-87
2021/12/08 09:04:26;;;;;;;6.70;1.95;;;;;;;;;;5010644;28;46314;-93
2021/12/08 09:06:54;;;;;;;10.00;1.90;;;;;;;;;;5010300;28;44151;-85
2021/12/08 09:09:22;;;;;;;9.50;1.90;;;;;;;;;;5006711;28;46029;-84
2021/12/08 09:11:51;;;;;;;6.63;1.70;;;;;;;;;;5008615;28;44901;-84
2021/12/08 09:14:20;;;;;;;6.13;1.50;;;;;;;;;;5010417;28;45736;-84
2021/12/08 09:16:51;;;;;;;9.80;2.00;;;;;;;;;;5008853;28;46079;-85
2021/12/08 09:19:25;;;;;;;8.75;1.80;;;;;;;;;;5008280;28;44898;-85
2021/12/08 09:21:55;;;;;;;17.95;2.03;;;;;;;;;;5009591;28;43722;-85
2021/12/08 09:24:47;;;;;;;10.05;1.58;;;;;;;;;;5010159;28;44305;-85
2021/12/08 09:27:15;;;;;;;7.80;1.73;;;;;;;;;;5010385;28;42869;-85
2021/12/08 09:29:48;;;;;;;7.32;1.52;;;;;;;;;;5009354;28;45888;-85
2021/12/08 09:32:19;;;;;;;9.75;1.60;;;;;;;;;;5009296;28;44978;-86
2021/12/08 09:34:54;;;;;;;10.65;2.00;;;;;;;;;;5009814;28;45762;-88
2021/12/08 09:37:22;;;;;;;5.90;1.30;;;;;;;;;;5009220;28;44958;-86
2021/12/08 09:39:54;;;;;;;8.05;1.73;;;;;;;;;;4955689;28;46446;-85
2021/12/08 09:42:23;;;;;;;15.55;2.10;;;;;;;;;;5009483;28;45868;-85
2021/12/08 09:44:52;;;;;;;9.65;1.90;;;;;;;;;;5008250;28;45221;-85
2021/12/08 09:47:20;;;;;;;10.60;1.88;;;;;;;;;;5008289;28;44033;-85
2021/12/08 09:49:49;;;;;;;10.20;1.70;;;;;;;;;;5009523;28;45804;-85
2021/12/08 09:52:17;;;;;;;5.43;1.52;;;;;;;;;;5007434;28;44898;-85
2021/12/08 09:54:44;;;;;;;10.07;2.38;;;;;;;;;;5016574;28;43610;-85
2021/12/08 09:57:13;;;;;;;7.55;1.98;;;;;;;;;;5014618;28;44963;-85
2021/12/08 09:59:46;;;;;;;9.10;2.13;;;;;;;;;;5009355;28;41604;-86
2021/12/08 10:02:26;;;;;;;13.38;2.20;;;;;;;;;;5008879;28;42980;-85
2021/12/08 10:04:55;;;;;;;8.25;1.67;;;;;;;;;;5008343;28;43929;-85
2021/12/08 10:07:22;;;;;;;6.82;1.85;;;;;;;;;;5008529;28;43842;-85
2021/12/08 10:09:49;;;;;;;8.00;1.60;;;;;;;;;;5008710;28;45633;-85
2021/12/08 10:12:16;;;;;;;9.80;1.83;;;;;;;;;;5008320;28;46059;-85
2021/12/08 10:14:46;;;;;;;7.85;1.40;;;;;;;;;;5006309;28;45715;-85
2021/12/08 10:17:14;;;;;;;6.68;1.70;;;;;;;;;;5009882;28;44960;-84
2021/12/08 10:19:42;;;;;;;6.60;2.05;;;;;;;;;;5008085;28;42916;-84
2021/12/08 10:22:21;;;;;;;10.45;1.75;;;;;;;;;;5023457;28;44983;-84
2021/12/08 10:25:01;;;;;;;9.77;1.95;;;;;;;;;;5008064;28;46436;-84
2021/12/08 10:27:28;;;;;;;10.68;2.03;;;;;;;;;;5006910;28;43913;-84
2021/12/08 10:30:15;;;;;;;7.35;1.60;;;;;;;;;;5007769;28;45815;-85
2021/12/08 10:32:41;;;;;;;9.40;1.83;;;;;;;;;;5011263;28;46254;-85
2021/12/08 10:35:38;;;;;;;12.85;2.15;;;;;;;;;;5027633;28;37463;-85
2021/12/08 10:38:05;;;;;;;5.80;1.92;;;;;;;;;;5027687;28;46481;-85
2021/12/08 10:40:32;;;;;;;11.15;1.85;;;;;;;;;;5028808;28;20141;-84
2021/12/08 10:43:11;;;;;;;6.05;1.80;;;;;;;;;;5015382;28;44621;-90
2021/12/08 10:45:37;;;;;;;7.30;1.98;;;;;;;;;;5008008;28;43881;-86
2021/12/08 10:48:05;;;;;;;5.28;1.40;;;;;;;;;;5007226;28;41696;-86
2021/12/08 10:56:09;;;;;;;2.70;1.30;;;;;;;;;;5008275;28;43889;-85
2021/12/08 10:58:39;;;;;;;7.72;1.80;;;;;;;;;;5007660;28;46406;-86
2021/12/08 11:01:11;;;;;;;6.75;1.60;;;;;;;;;;5007063;28;44278;-85
2021/12/08 11:03:39;;;;;;;6.55;1.48;;;;;;;;;;5007725;28;45678;-87
2021/12/08 11:06:07;;;;;;;;;;;;;;;;;;5012340;28;46096;-91
2021/12/08 11:08:36;;;;;;;10.30;1.73;;;;;;;;;;5010957;28;43993;-87
2021/12/08 11:11:09;;;;;;;4.80;1.55;;;;;;;;;;5031026;28;44609;-86
2021/12/08 11:13:37;;;;;;;5.60;1.80;;;;;;;;;;5030797;28;44974;-91
2021/12/08 11:16:13;;;;;;;4.85;1.60;;;;;;;;;;5030360;28;45336;-92
2021/12/08 11:18:41;;;;;;;19.25;2.13;;;;;;;;;;5031297;28;43653;-92
2021/12/08 11:21:15;;;;;;;4.40;1.55;;;;;;;;;;5030842;28;44808;-89
2021/12/08 11:24:03;;;;;;;8.10;1.60;;;;;;;;;;5011610;28;43594;-87
2021/12/08 11:26:33;;;;;;;9.15;1.60;;;;;;;;;;5010633;28;44615;-90
2021/12/08 11:29:03;;;;;;;6.18;1.55;;;;;;;;;;5010357;28;44860;-89
2021/12/08 11:31:31;;;;;;;3.53;1.48;;;;;;;;;;5009765;28;46040;-90
2021/12/08 11:34:00;;;;;;;10.82;1.95;;;;;;;;;;5010416;28;44972;-92
2021/12/08 11:36:29;;;;;;;6.00;1.60;;;;;;;;;;5009837;28;44979;-89
2021/12/08 11:38:55;;;;;;;8.75;1.63;;;;;;;;;;5010591;28;45614;-90
2021/12/08 11:41:35;;;;;;;9.18;1.63;;;;;;;;;;5010788;28;43912;-88
2021/12/08 11:44:13;;;;;;;7.65;1.38;;;;;;;;;;4990221;28;44287;-92
2021/12/08 11:46:58;;;;;;;6.20;1.33;;;;;;;;;;4990088;28;46463;-92
2021/12/08 11:49:25;;;;;;;7.57;1.80;;;;;;;;;;4990413;28;42895;-91
2021/12/08 11:51:54;;;;;;;5.07;1.52;;;;;;;;;;4990416;28;45919;-91
2021/12/08 11:54:20;;;;;;;;;;;;;;;;;;4992326;28;46077;-91
2021/12/08 11:56:47;;;;;;;7.07;1.38;;;;;;;;;;4992499;28;44055;-92
2021/12/08 11:59:14;;;;;;;4.53;1.45;;;;;;;;;;4994124;28;43058;-92
2021/12/08 12:01:41;;;;;;;8.25;1.60;;;;;;;;;;5010760;28;46014;-88
2021/12/08 12:04:09;;;;;;;5.63;1.45;;;;;;;;;;5011135;28;45032;-92
2021/12/08 12:06:37;;;;;;;4.88;1.48;;;;;;;;;;5009854;28;45945;-92
2021/12/08 12:09:06;;;;;;;3.50;1.40;;;;;;;;;;5010417;28;43422;-89
2021/12/08 12:11:53;;;;;;;8.10;1.88;;;;;;;;;;5009317;28;42944;-88
2021/12/08 12:14:20;;;;;;;5.88;1.50;;;;;;;;;;5008945;28;46030;-87
2021/12/08 12:16:47;;;;;;;4.93;1.75;;;;;;;;;;5009318;28;43217;-87
2021/12/08 12:19:17;;;;;;;4.00;1.50;;;;;;;;;;5009761;28;44896;-87
2021/12/08 12:21:56;;;;;;;3.58;1.65;;;;;;;;;;5009185;28;44936;-92
2021/12/08 12:24:48;;;;;;;3.75;1.60;;;;;;;;;;5023448;28;43081;-90
2021/12/08 12:27:20;;;;;;;5.20;1.77;;;;;;;;;;5021469;28;45748;-89
2021/12/08 12:29:56;;;;;;;7.28;1.80;;;;;;;;;;5010098;28;41757;-85
2021/12/08 12:32:26;;;;;;;6.88;2.05;;;;;;;;;;5008819;28;42475;-88
2021/12/08 12:35:08;;;;;;;2.88;1.42;;;;;;;;;;5009600;28;46044;-88
2021/12/08 12:37:36;;;;;;;2.95;1.20;;;;;;;;;;5012153;28;44940;-87
2021/12/08 12:40:06;;;;;;;3.53;1.48;;;;;;;;;;5010028;28;44225;-87
2021/12/08 12:42:44;;;;;;;8.25;2.63;;;;;;;;;;5012122;28;44829;-87
2021/12/08 12:45:13;;;;;;;4.25;1.35;;;;;;;;;;5015985;28;44196;-88
2021/12/08 12:47:41;;;;;;;4.10;1.60;;;;;;;;;;5018682;28;43694;-88
2021/12/08 12:50:15;;;;;;;4.22;1.67;;;;;;;;;;5019330;28;42463;-90
2021/12/08 12:52:47;;;;;;;5.15;1.90;;;;;;;;;;5029958;28;45814;-88
2021/12/08 12:55:17;;;;;;;5.78;1.98;;;;;;;;;;5005544;28;46057;-86
2021/12/08 12:58:04;;;;;;;3.75;1.40;;;;;;;;;;5009634;28;43053;-87
2021/12/08 13:00:39;;;;;;;10.70;1.90;;;;;;;;;;5015635;28;44215;-87
2021/12/08 13:03:06;;;;;;;9.00;1.63;;;;;;;;;;5028294;28;44168;-86
2021/12/08 13:05:45;;;;;;;15.15;2.30;;;;;;;;;;5016089;28;42526;-89
2021/12/08 13:08:12;;;;;;;5.55;1.30;;;;;;;;;;5007823;28;44495;-87
2021/12/08 13:10:39;;;;;;;4.40;1.50;;;;;;;;;;5008740;28;45066;-86
2021/12/08 13:13:10;;;;;;;3.53;1.60;;;;;;;;;;5008113;28;45669;-86
2021/12/08 13:15:37;;;;;;;4.93;1.50;;;;;;;;;;5007449;28;45908;-88
2021/12/08 13:18:20;;;;;;;11.23;1.70;;;;;;;;;;5006900;28;44068;-84
2021/12/08 13:20:54;;;;;;;8.95;1.70;;;;;;;;;;5007859;28;43902;-90
2021/12/08 13:23:23;;;;;;;4.68;1.77;;;;;;;;;;5007248;28;45847;-86
2021/12/08 13:25:59;;;;;;;13.23;2.10;;;;;;;;;;5008250;28;43966;-86
2021/12/08 13:28:50;;;;;;;4.40;1.67;;;;;;;;;;5007482;28;43690;-86
2021/12/08 13:31:20;;;;;;;4.57;1.60;;;;;;;;;;5007664;28;45055;-86
2021/12/08 13:33:58;;;;;;;8.63;2.00;;;;;;;;;;5008914;28;43925;-87
2021/12/08 13:36:31;;;;;;;;;;;;;;;;;;5010182;28;20050;-86
2021/12/08 13:38:58;;;;;;;9.38;1.92;;;;;;;;;;5009314;28;44969;-85
2021/12/08 13:41:26;;;;;;;5.65;2.08;;;;;;;;;;4991403;28;44599;-85
2021/12/08 13:43:54;;;;;;;5.07;2.30;;;;;;;;;;5008054;28;45926;-86
2021/12/08 13:46:50;;;;;;;6.38;1.95;;;;;;;;;;5008416;28;43639;-85
2021/12/08 13:49:26;;;;;;;5.10;1.90;;;;;;;;;;5004091;28;43526;-85
2021/12/08 13:51:59;;;;;;;9.18;2.72;;;;;;;;;;5027966;28;41700;-85
2021/12/08 13:54:30;;;;;;;10.05;2.30;;;;;;;;;;5027968;28;43972;-85
2021/12/08 13:56:57;;;;;;;5.82;1.80;;;;;;;;;;5028077;28;44548;-90
2021/12/08 13:59:45;;;;;;;9.02;2.22;;;;;;;;;;5027874;28;43638;-92
2021/12/08 14:02:29;;;;;;;6.55;1.92;;;;;;;;;;5028349;28;35548;-83
2021/12/08 14:05:01;;;;;;;11.05;2.17;;;;;;;;;;5028763;28;44162;-85
2021/12/08 14:07:35;;;;;;;5.57;2.10;;;;;;;;;;5031471;28;20064;-84
2021/12/08 14:10:04;;;;;;;18.15;9.65;;;;;;;;;;5029133;28;46203;-84
2021/12/08 14:12:43;;;;;;;5.63;2.47;;;;;;;;;;5028546;28;46055;-90
2021/12/08 14:15:14;;;;;;;9.02;2.55;;;;;;;;;;5031502;28;44557;-90
2021/12/08 14:17:43;;;;;;;8.18;2.17;;;;;;;;;;5029450;28;45372;-94
2021/12/08 14:20:30;;;;;;;9.27;2.30;;;;;;;;;;5029790;28;45941;-85
2021/12/08 14:22:57;;;;;;;5.32;2.10;;;;;;;;;;5023737;28;46020;-96
2021/12/08 14:25:43;;;;;;;5.90;1.77;;;;;;;;;;5015349;28;45155;-95
2021/12/08 14:28:29;;;;;;;8.25;2.80;;;;;;;;;;5007594;28;43955;-95
2021/12/08 14:30:56;;;;;;;4.63;1.88;;;;;;;;;;5014728;28;44726;-94
2021/12/08 14:33:24;;;;;;;3.03;1.85;;;;;;;;;;5009152;28;46142;-94
2021/12/08 14:36:02;;;;;;;8.82;2.47;;;;;;;;;;5009507;28;44442;-93
2021/12/08 14:38:29;;;;;;;6.47;1.85;;;;;;;;;;5010861;28;43203;-95
2021/12/08 14:40:57;;;;;;;9.45;2.13;;;;;;;;;;5016419;28;44960;-95
2021/12/08 14:43:35;;;;;;;4.05;1.50;;;;;;;;;;5016315;28;42927;-96
2021/12/08 14:46:10;;;;;;;8.13;1.83;;;;;;;;;;5015661;28;20469;-96
2021/12/08 14:48:43;;;;;;;8.55;2.22;;;;;;;;;;5017981;28;45090;-96
2021/12/08 14:51:11;;;;;;;5.25;1.70;;;;;;;;;;5016634;28;20528;-96
2021/12/08 14:53:38;;;;;;;6.78;1.77;;;;;;;;;;5013147;28;39346;-94
2021/12/08 14:56:12;;;;;;;6.30;2.60;;;;;;;;;;5010977;28;43057;-94
2021/12/08 14:58:39;;;;;;;5.70;2.10;;;;;;;;;;5011572;28;44603;-94
2021/12/08 15:01:07;;;;;;;7.70;2.03;;;;;;;;;;5009923;28;43612;-96
2021/12/08 15:03:38;;;;;;;7.20;1.95;;;;;;;;;;5016290;28;43399;-94
2021/12/08 15:06:15;;;;;;;7.32;2.10;;;;;;;;;;5011061;28;20061;-96
2021/12/08 15:08:42;;;;;;;13.35;2.20;;;;;;;;;;5013586;28;25409;-95
2021/12/08 15:11:29;;;;;;;8.18;1.95;;;;;;;;;;5018445;28;20039;-95
2021/12/08 15:13:58;;;;;;;4.50;2.05;;;;;;;;;;5019701;28;20502;-96
2021/12/08 15:16:25;;;;;;;4.28;2.00;;;;;;;;;;5016858;28;31863;-95
2021/12/08 15:19:02;;;;;;;6.05;1.85;;;;;;;;;;5018982;28;20942;-94
2021/12/08 15:21:36;;;;;;;7.47;1.73;;;;;;;;;;5012048;28;20057;-93
2021/12/08 15:24:11;;;;;;;7.07;2.25;;;;;;;;;;5026778;28;20532;-95
2021/12/08 15:26:38;;;;;;;8.80;1.63;;;;;;;;;;5000154;28;20053;-94
2021/12/08 15:29:06;;;;;;;4.13;1.52;;;;;;;;;;4998038;28;20038;-95
2021/12/08 15:31:35;;;;;;;9.40;1.90;;;;;;;;;;4997768;28;20099;-95
2021/12/08 15:34:15;;;;;;;7.85;2.35;;;;;;;;;;4995567;28;20538;-95
2021/12/08 15:36:42;;;;;;;7.15;1.77;;;;;;;;;;4994088;28;37463;-96
2021/12/08 15:39:09;;;;;;;4.38;1.77;;;;;;;;;;4996736;28;33909;-95
2021/12/08 15:41:39;;;;;;;7.80;2.42;;;;;;;;;;4996832;28;35793;-96